sensor_id;sensor_type;location;lat;lon;timestamp;temperature;humidity
47310;DHT22;33046;52.270;6.832;2023-06-04T00:01:16;17.60;62.60
47310;DHT22;33046;52.270;6.832;2023-06-04T00:03:23;17.60;62.50
47310;DHT22;33046;52.270;6.832;2023-06-04T00:05:31;17.50;62.50
47310;DHT22;33046;52.270;6.832;2023-06-04T00:07:38;17.40;62.70
47310;DHT22;33046;52.270;6.832;2023-06-04T00:09:46;17.40;63.00
47310;DHT22;33046;52.270;6.832;2023-06-04T00:11:54;17.40;62.90
47310;DHT22;33046;52.270;6.832;2023-06-04T00:14:01;17.30;62.80
47310;DHT22;33046;52.270;6.832;2023-06-04T00:16:08;17.40;62.90
47310;DHT22;33046;52.270;6.832;2023-06-04T00:18:14;17.30;62.90
47310;DHT22;33046;52.270;6.832;2023-06-04T00:20:21;17.30;63.10
47310;DHT22;33046;52.270;6.832;2023-06-04T00:22:28;17.30;63.10
47310;DHT22;33046;52.270;6.832;2023-06-04T00:24:37;17.20;63.30
47310;DHT22;33046;52.270;6.832;2023-06-04T00:26:45;17.20;63.40
47310;DHT22;33046;52.270;6.832;2023-06-04T00:28:54;17.10;63.20
47310;DHT22;33046;52.270;6.832;2023-06-04T00:31:04;17.20;63.60
47310;DHT22;33046;52.270;6.832;2023-06-04T00:33:11;17.20;63.40
47310;DHT22;33046;52.270;6.832;2023-06-04T00:35:18;17.10;63.30
47310;DHT22;33046;52.270;6.832;2023-06-04T00:37:25;17.10;63.50
47310;DHT22;33046;52.270;6.832;2023-06-04T00:39:32;17.00;63.40
47310;DHT22;33046;52.270;6.832;2023-06-04T00:41:39;17.00;63.50
47310;DHT22;33046;52.270;6.832;2023-06-04T00:43:46;17.00;63.70
47310;DHT22;33046;52.270;6.832;2023-06-04T00:45:54;16.90;63.60
47310;DHT22;33046;52.270;6.832;2023-06-04T00:48:01;16.90;63.80
47310;DHT22;33046;52.270;6.832;2023-06-04T00:50:09;16.80;65.00
47310;DHT22;33046;52.270;6.832;2023-06-04T00:52:16;16.80;64.60
47310;DHT22;33046;52.270;6.832;2023-06-04T00:54:23;16.80;64.80
47310;DHT22;33046;52.270;6.832;2023-06-04T00:56:31;16.70;65.00
47310;DHT22;33046;52.270;6.832;2023-06-04T00:58:38;16.60;65.10
47310;DHT22;33046;52.270;6.832;2023-06-04T01:00:45;16.60;65.00
47310;DHT22;33046;52.270;6.832;2023-06-04T01:02:54;16.70;64.90
47310;DHT22;33046;52.270;6.832;2023-06-04T01:05:08;16.70;64.70
47310;DHT22;33046;52.270;6.832;2023-06-04T01:07:17;16.60;65.10
47310;DHT22;33046;52.270;6.832;2023-06-04T01:09:26;16.60;65.20
47310;DHT22;33046;52.270;6.832;2023-06-04T01:11:33;16.50;65.40
47310;DHT22;33046;52.270;6.832;2023-06-04T01:13:40;16.50;65.50
47310;DHT22;33046;52.270;6.832;2023-06-04T01:15:47;16.50;65.60
47310;DHT22;33046;52.270;6.832;2023-06-04T01:17:58;16.40;65.30
47310;DHT22;33046;52.270;6.832;2023-06-04T01:20:27;16.40;65.50
47310;DHT22;33046;52.270;6.832;2023-06-04T01:22:38;16.30;65.60
47310;DHT22;33046;52.270;6.832;2023-06-04T01:24:51;16.40;65.60
47310;DHT22;33046;52.270;6.832;2023-06-04T01:26:59;16.40;65.50
47310;DHT22;33046;52.270;6.832;2023-06-04T01:29:06;16.30;65.30
47310;DHT22;33046;52.270;6.832;2023-06-04T01:31:14;16.30;65.70
47310;DHT22;33046;52.270;6.832;2023-06-04T01:33:22;16.10;65.80
47310;DHT22;33046;52.270;6.832;2023-06-04T01:35:30;16.10;66.00
47310;DHT22;33046;52.270;6.832;2023-06-04T01:37:36;16.10;66.00
47310;DHT22;33046;52.270;6.832;2023-06-04T01:39:43;16.10;66.10
47310;DHT22;33046;52.270;6.832;2023-06-04T01:41:50;16.10;65.90
47310;DHT22;33046;52.270;6.832;2023-06-04T01:43:57;16.10;66.20
47310;DHT22;33046;52.270;6.832;2023-06-04T01:46:04;16.00;67.00
47310;DHT22;33046;52.270;6.832;2023-06-04T01:48:11;16.00;66.50
47310;DHT22;33046;52.270;6.832;2023-06-04T01:50:20;16.00;66.60
47310;DHT22;33046;52.270;6.832;2023-06-04T01:52:27;16.00;66.50
47310;DHT22;33046;52.270;6.832;2023-06-04T01:54:34;15.90;66.80
47310;DHT22;33046;52.270;6.832;2023-06-04T01:56:41;15.90;67.10
47310;DHT22;33046;52.270;6.832;2023-06-04T01:58:47;15.90;67.10
47310;DHT22;33046;52.270;6.832;2023-06-04T02:00:54;15.80;67.20
47310;DHT22;33046;52.270;6.832;2023-06-04T02:03:01;15.80;67.60
47310;DHT22;33046;52.270;6.832;2023-06-04T02:05:09;15.80;67.30
47310;DHT22;33046;52.270;6.832;2023-06-04T02:07:18;15.70;67.30
47310;DHT22;33046;52.270;6.832;2023-06-04T02:09:25;15.70;67.90
47310;DHT22;33046;52.270;6.832;2023-06-04T02:11:32;15.70;68.50
47310;DHT22;33046;52.270;6.832;2023-06-04T02:13:39;15.70;67.90
47310;DHT22;33046;52.270;6.832;2023-06-04T02:15:46;15.70;67.90
47310;DHT22;33046;52.270;6.832;2023-06-04T02:17:55;15.60;67.80
47310;DHT22;33046;52.270;6.832;2023-06-04T02:20:02;15.60;67.90
47310;DHT22;33046;52.270;6.832;2023-06-04T02:22:09;15.60;68.20
47310;DHT22;33046;52.270;6.832;2023-06-04T02:24:17;15.50;68.30
47310;DHT22;33046;52.270;6.832;2023-06-04T02:26:24;15.50;68.40
47310;DHT22;33046;52.270;6.832;2023-06-04T02:28:31;15.50;68.70
47310;DHT22;33046;52.270;6.832;2023-06-04T02:30:38;15.50;68.50
47310;DHT22;33046;52.270;6.832;2023-06-04T02:32:45;15.50;69.00
47310;DHT22;33046;52.270;6.832;2023-06-04T02:34:51;15.50;69.10
47310;DHT22;33046;52.270;6.832;2023-06-04T02:36:58;15.40;69.10
47310;DHT22;33046;52.270;6.832;2023-06-04T02:39:05;15.40;69.40
47310;DHT22;33046;52.270;6.832;2023-06-04T02:41:13;15.30;69.50
47310;DHT22;33046;52.270;6.832;2023-06-04T02:43:20;15.20;69.50
47310;DHT22;33046;52.270;6.832;2023-06-04T02:45:27;15.20;70.30
47310;DHT22;33046;52.270;6.832;2023-06-04T02:47:34;15.30;70.00
47310;DHT22;33046;52.270;6.832;2023-06-04T02:49:41;15.30;70.00
47310;DHT22;33046;52.270;6.832;2023-06-04T02:51:47;15.20;70.30
47310;DHT22;33046;52.270;6.832;2023-06-04T02:53:54;15.20;70.50
47310;DHT22;33046;52.270;6.832;2023-06-04T02:56:01;15.20;70.70
47310;DHT22;33046;52.270;6.832;2023-06-04T02:58:09;15.20;70.80
47310;DHT22;33046;52.270;6.832;2023-06-04T03:00:16;15.20;70.90
47310;DHT22;33046;52.270;6.832;2023-06-04T03:02:23;15.10;71.00
47310;DHT22;33046;52.270;6.832;2023-06-04T03:04:30;15.10;71.30
47310;DHT22;33046;52.270;6.832;2023-06-04T03:06:37;15.10;71.50
47310;DHT22;33046;52.270;6.832;2023-06-04T03:08:44;15.10;71.40
47310;DHT22;33046;52.270;6.832;2023-06-04T03:10:51;15.10;71.60
47310;DHT22;33046;52.270;6.832;2023-06-04T03:12:58;15.00;71.70
47310;DHT22;33046;52.270;6.832;2023-06-04T03:15:08;15.00;71.90
47310;DHT22;33046;52.270;6.832;2023-06-04T03:17:15;14.90;71.90
47310;DHT22;33046;52.270;6.832;2023-06-04T03:19:22;14.90;72.10
47310;DHT22;33046;52.270;6.832;2023-06-04T03:21:29;14.90;72.20
47310;DHT22;33046;52.270;6.832;2023-06-04T03:23:36;14.90;72.50
47310;DHT22;33046;52.270;6.832;2023-06-04T03:25:43;14.90;72.50
47310;DHT22;33046;52.270;6.832;2023-06-04T03:27:49;14.90;72.70
47310;DHT22;33046;52.270;6.832;2023-06-04T03:29:56;14.90;72.90
47310;DHT22;33046;52.270;6.832;2023-06-04T03:32:06;14.80;72.90
47310;DHT22;33046;52.270;6.832;2023-06-04T03:34:13;14.80;72.80
47310;DHT22;33046;52.270;6.832;2023-06-04T03:36:20;14.70;73.10
47310;DHT22;33046;52.270;6.832;2023-06-04T03:38:27;14.70;73.50
47310;DHT22;33046;52.270;6.832;2023-06-04T03:40:34;14.80;73.50
47310;DHT22;33046;52.270;6.832;2023-06-04T03:42:43;14.70;73.80
47310;DHT22;33046;52.270;6.832;2023-06-04T03:44:51;14.70;74.10
47310;DHT22;33046;52.270;6.832;2023-06-04T03:46:59;14.70;74.20
47310;DHT22;33046;52.270;6.832;2023-06-04T03:49:08;14.60;74.40
47310;DHT22;33046;52.270;6.832;2023-06-04T03:51:15;14.70;74.70
47310;DHT22;33046;52.270;6.832;2023-06-04T03:53:24;14.60;74.90
47310;DHT22;33046;52.270;6.832;2023-06-04T03:55:31;14.60;75.10
47310;DHT22;33046;52.270;6.832;2023-06-04T03:57:38;14.60;75.40
47310;DHT22;33046;52.270;6.832;2023-06-04T03:59:46;14.60;75.80
47310;DHT22;33046;52.270;6.832;2023-06-04T04:01:53;14.60;75.80
47310;DHT22;33046;52.270;6.832;2023-06-04T04:04:00;14.60;76.10
47310;DHT22;33046;52.270;6.832;2023-06-04T04:06:09;14.60;76.30
47310;DHT22;33046;52.270;6.832;2023-06-04T04:08:17;14.60;76.30
47310;DHT22;33046;52.270;6.832;2023-06-04T04:10:24;14.60;76.70
47310;DHT22;33046;52.270;6.832;2023-06-04T04:12:31;14.60;76.70
47310;DHT22;33046;52.270;6.832;2023-06-04T04:14:39;14.60;76.80
47310;DHT22;33046;52.270;6.832;2023-06-04T04:16:47;14.60;77.20
47310;DHT22;33046;52.270;6.832;2023-06-04T04:18:54;14.70;77.20
47310;DHT22;33046;52.270;6.832;2023-06-04T04:21:01;14.70;77.20
47310;DHT22;33046;52.270;6.832;2023-06-04T04:23:09;14.70;77.20
47310;DHT22;33046;52.270;6.832;2023-06-04T04:25:18;14.70;77.30
47310;DHT22;33046;52.270;6.832;2023-06-04T04:27:25;14.70;77.80
47310;DHT22;33046;52.270;6.832;2023-06-04T04:29:32;14.70;78.10
47310;DHT22;33046;52.270;6.832;2023-06-04T04:31:39;14.60;78.40
47310;DHT22;33046;52.270;6.832;2023-06-04T04:33:46;14.70;78.80
47310;DHT22;33046;52.270;6.832;2023-06-04T04:35:53;14.60;78.40
47310;DHT22;33046;52.270;6.832;2023-06-04T04:38:02;14.60;79.00
47310;DHT22;33046;52.270;6.832;2023-06-04T04:40:12;14.70;79.10
47310;DHT22;33046;52.270;6.832;2023-06-04T04:42:21;14.70;79.00
47310;DHT22;33046;52.270;6.832;2023-06-04T04:44:29;14.80;79.10
47310;DHT22;33046;52.270;6.832;2023-06-04T04:46:37;14.80;79.40
47310;DHT22;33046;52.270;6.832;2023-06-04T04:48:44;14.80;79.70
47310;DHT22;33046;52.270;6.832;2023-06-04T04:50:51;14.80;79.70
47310;DHT22;33046;52.270;6.832;2023-06-04T04:52:58;14.80;79.80
47310;DHT22;33046;52.270;6.832;2023-06-04T04:55:07;14.80;80.00
47310;DHT22;33046;52.270;6.832;2023-06-04T04:57:16;14.90;80.00
47310;DHT22;33046;52.270;6.832;2023-06-04T04:59:27;14.90;80.40
47310;DHT22;33046;52.270;6.832;2023-06-04T05:01:36;14.90;80.60
47310;DHT22;33046;52.270;6.832;2023-06-04T05:03:44;14.90;80.60
47310;DHT22;33046;52.270;6.832;2023-06-04T05:05:53;14.90;80.70
47310;DHT22;33046;52.270;6.832;2023-06-04T05:08:01;14.90;80.60
47310;DHT22;33046;52.270;6.832;2023-06-04T05:10:12;14.90;80.90
47310;DHT22;33046;52.270;6.832;2023-06-04T05:12:21;15.00;80.80
47310;DHT22;33046;52.270;6.832;2023-06-04T05:14:28;15.00;80.70
47310;DHT22;33046;52.270;6.832;2023-06-04T05:16:35;15.00;80.40
47310;DHT22;33046;52.270;6.832;2023-06-04T05:18:42;15.00;80.40
47310;DHT22;33046;52.270;6.832;2023-06-04T05:20:51;15.00;80.10
47310;DHT22;33046;52.270;6.832;2023-06-04T05:22:58;15.10;80.20
47310;DHT22;33046;52.270;6.832;2023-06-04T05:25:06;15.10;80.10
47310;DHT22;33046;52.270;6.832;2023-06-04T05:27:13;15.10;80.00
47310;DHT22;33046;52.270;6.832;2023-06-04T05:29:22;15.10;79.60
47310;DHT22;33046;52.270;6.832;2023-06-04T05:31:29;15.20;79.60
47310;DHT22;33046;52.270;6.832;2023-06-04T05:33:38;15.40;79.80
47310;DHT22;33046;52.270;6.832;2023-06-04T05:35:48;15.50;79.80
47310;DHT22;33046;52.270;6.832;2023-06-04T05:37:55;15.70;79.60
47310;DHT22;33046;52.270;6.832;2023-06-04T05:40:08;15.80;79.20
47310;DHT22;33046;52.270;6.832;2023-06-04T05:42:16;16.00;78.80
47310;DHT22;33046;52.270;6.832;2023-06-04T05:44:25;16.20;78.40
47310;DHT22;33046;52.270;6.832;2023-06-04T05:46:32;16.40;77.80
47310;DHT22;33046;52.270;6.832;2023-06-04T05:48:39;16.60;77.30
47310;DHT22;33046;52.270;6.832;2023-06-04T05:50:46;16.70;76.80
47310;DHT22;33046;52.270;6.832;2023-06-04T05:52:54;17.00;76.20
47310;DHT22;33046;52.270;6.832;2023-06-04T05:55:02;17.10;75.70
47310;DHT22;33046;52.270;6.832;2023-06-04T05:57:09;17.20;75.10
47310;DHT22;33046;52.270;6.832;2023-06-04T05:59:17;17.30;75.50
47310;DHT22;33046;52.270;6.832;2023-06-04T06:01:25;17.40;74.70
47310;DHT22;33046;52.270;6.832;2023-06-04T06:03:32;17.60;73.90
47310;DHT22;33046;52.270;6.832;2023-06-04T06:05:39;17.80;73.40
47310;DHT22;33046;52.270;6.832;2023-06-04T06:07:46;17.90;73.50
47310;DHT22;33046;52.270;6.832;2023-06-04T06:09:53;18.10;73.00
47310;DHT22;33046;52.270;6.832;2023-06-04T06:12:01;18.30;72.60
47310;DHT22;33046;52.270;6.832;2023-06-04T06:14:08;18.40;72.10
47310;DHT22;33046;52.270;6.832;2023-06-04T06:16:15;18.50;71.90
47310;DHT22;33046;52.270;6.832;2023-06-04T06:18:24;18.70;71.50
47310;DHT22;33046;52.270;6.832;2023-06-04T06:20:31;18.90;70.50
47310;DHT22;33046;52.270;6.832;2023-06-04T06:22:38;19.00;70.40
47310;DHT22;33046;52.270;6.832;2023-06-04T06:24:46;19.10;69.80
47310;DHT22;33046;52.270;6.832;2023-06-04T06:26:53;19.30;69.40
47310;DHT22;33046;52.270;6.832;2023-06-04T06:29:00;19.50;68.80
47310;DHT22;33046;52.270;6.832;2023-06-04T06:31:08;19.70;68.80
47310;DHT22;33046;52.270;6.832;2023-06-04T06:33:15;19.80;67.60
47310;DHT22;33046;52.270;6.832;2023-06-04T06:35:23;20.00;67.50
47310;DHT22;33046;52.270;6.832;2023-06-04T06:37:30;20.30;66.90
47310;DHT22;33046;52.270;6.832;2023-06-04T06:39:37;20.40;66.80
47310;DHT22;33046;52.270;6.832;2023-06-04T06:41:45;20.60;66.30
47310;DHT22;33046;52.270;6.832;2023-06-04T06:43:57;20.90;66.20
47310;DHT22;33046;52.270;6.832;2023-06-04T06:46:04;21.00;65.10
47310;DHT22;33046;52.270;6.832;2023-06-04T06:48:10;21.20;64.20
47310;DHT22;33046;52.270;6.832;2023-06-04T06:50:17;21.50;64.40
47310;DHT22;33046;52.270;6.832;2023-06-04T06:52:25;21.60;63.90
47310;DHT22;33046;52.270;6.832;2023-06-04T06:54:32;21.80;63.30
47310;DHT22;33046;52.270;6.832;2023-06-04T06:56:39;22.00;62.80
47310;DHT22;33046;52.270;6.832;2023-06-04T06:58:46;22.00;61.70
47310;DHT22;33046;52.270;6.832;2023-06-04T07:00:53;22.30;61.80
47310;DHT22;33046;52.270;6.832;2023-06-04T07:03:00;22.50;61.80
47310;DHT22;33046;52.270;6.832;2023-06-04T07:05:07;22.50;60.50
47310;DHT22;33046;52.270;6.832;2023-06-04T07:07:14;22.80;60.60
47310;DHT22;33046;52.270;6.832;2023-06-04T07:09:22;23.00;60.20
47310;DHT22;33046;52.270;6.832;2023-06-04T07:11:29;23.00;60.40
47310;DHT22;33046;52.270;6.832;2023-06-04T07:13:36;23.20;59.60
47310;DHT22;33046;52.270;6.832;2023-06-04T07:15:43;23.40;59.40
47310;DHT22;33046;52.270;6.832;2023-06-04T07:17:50;23.40;59.20
47310;DHT22;33046;52.270;6.832;2023-06-04T07:19:56;23.50;59.10
47310;DHT22;33046;52.270;6.832;2023-06-04T07:22:03;23.50;58.40
47310;DHT22;33046;52.270;6.832;2023-06-04T07:24:10;23.70;58.80
47310;DHT22;33046;52.270;6.832;2023-06-04T07:26:18;23.70;58.60
47310;DHT22;33046;52.270;6.832;2023-06-04T07:28:25;23.80;58.00
47310;DHT22;33046;52.270;6.832;2023-06-04T07:30:32;23.90;57.80
47310;DHT22;33046;52.270;6.832;2023-06-04T07:32:39;23.80;57.90
47310;DHT22;33046;52.270;6.832;2023-06-04T07:34:46;24.10;56.70
47310;DHT22;33046;52.270;6.832;2023-06-04T07:36:53;24.00;56.50
47310;DHT22;33046;52.270;6.832;2023-06-04T07:38:59;24.00;55.30
47310;DHT22;33046;52.270;6.832;2023-06-04T07:41:06;23.90;55.80
47310;DHT22;33046;52.270;6.832;2023-06-04T07:43:15;23.80;56.10
47310;DHT22;33046;52.270;6.832;2023-06-04T07:45:21;23.80;55.40
47310;DHT22;33046;52.270;6.832;2023-06-04T07:47:28;23.90;56.00
47310;DHT22;33046;52.270;6.832;2023-06-04T07:49:35;23.80;56.00
47310;DHT22;33046;52.270;6.832;2023-06-04T07:51:45;23.60;55.30
47310;DHT22;33046;52.270;6.832;2023-06-04T07:53:52;23.60;56.40
47310;DHT22;33046;52.270;6.832;2023-06-04T07:55:59;23.50;56.20
47310;DHT22;33046;52.270;6.832;2023-06-04T07:58:06;23.40;56.50
47310;DHT22;33046;52.270;6.832;2023-06-04T08:00:15;23.30;55.60
47310;DHT22;33046;52.270;6.832;2023-06-04T08:02:22;23.20;56.30
47310;DHT22;33046;52.270;6.832;2023-06-04T08:04:29;23.20;56.80
47310;DHT22;33046;52.270;6.832;2023-06-04T08:06:35;23.10;55.70
47310;DHT22;33046;52.270;6.832;2023-06-04T08:08:43;23.00;55.90
47310;DHT22;33046;52.270;6.832;2023-06-04T08:10:49;23.00;56.80
47310;DHT22;33046;52.270;6.832;2023-06-04T08:12:56;22.90;56.50
47310;DHT22;33046;52.270;6.832;2023-06-04T08:15:04;23.00;55.70
47310;DHT22;33046;52.270;6.832;2023-06-04T08:17:13;22.90;56.70
47310;DHT22;33046;52.270;6.832;2023-06-04T08:19:19;22.80;56.30
47310;DHT22;33046;52.270;6.832;2023-06-04T08:21:27;22.80;56.30
47310;DHT22;33046;52.270;6.832;2023-06-04T08:23:33;22.80;57.10
47310;DHT22;33046;52.270;6.832;2023-06-04T08:25:40;22.70;57.90
47310;DHT22;33046;52.270;6.832;2023-06-04T08:27:47;22.70;57.00
47310;DHT22;33046;52.270;6.832;2023-06-04T08:29:54;22.60;57.30
47310;DHT22;33046;52.270;6.832;2023-06-04T08:32:01;22.60;55.40
47310;DHT22;33046;52.270;6.832;2023-06-04T08:34:09;22.60;56.90
47310;DHT22;33046;52.270;6.832;2023-06-04T08:36:16;22.50;56.70
47310;DHT22;33046;52.270;6.832;2023-06-04T08:38:23;22.50;57.50
47310;DHT22;33046;52.270;6.832;2023-06-04T08:40:30;22.50;56.70
47310;DHT22;33046;52.270;6.832;2023-06-04T08:42:41;22.60;57.00
47310;DHT22;33046;52.270;6.832;2023-06-04T08:44:50;22.60;56.90
47310;DHT22;33046;52.270;6.832;2023-06-04T08:47:02;22.60;54.90
47310;DHT22;33046;52.270;6.832;2023-06-04T08:49:12;22.60;52.70
47310;DHT22;33046;52.270;6.832;2023-06-04T08:51:19;22.60;53.90
47310;DHT22;33046;52.270;6.832;2023-06-04T08:53:26;22.60;55.10
47310;DHT22;33046;52.270;6.832;2023-06-04T08:55:33;22.60;56.30
47310;DHT22;33046;52.270;6.832;2023-06-04T08:57:41;22.70;56.70
47310;DHT22;33046;52.270;6.832;2023-06-04T08:59:48;22.70;55.20
47310;DHT22;33046;52.270;6.832;2023-06-04T09:01:56;22.70;54.30
47310;DHT22;33046;52.270;6.832;2023-06-04T09:04:06;22.80;53.90
47310;DHT22;33046;52.270;6.832;2023-06-04T09:06:15;22.70;55.30
47310;DHT22;33046;52.270;6.832;2023-06-04T09:08:23;22.80;53.50
47310;DHT22;33046;52.270;6.832;2023-06-04T09:10:31;22.80;55.40
47310;DHT22;33046;52.270;6.832;2023-06-04T09:12:42;22.80;54.70
47310;DHT22;33046;52.270;6.832;2023-06-04T09:14:49;22.80;53.20
47310;DHT22;33046;52.270;6.832;2023-06-04T09:16:56;22.90;53.90
47310;DHT22;33046;52.270;6.832;2023-06-04T09:19:04;22.90;53.70
47310;DHT22;33046;52.270;6.832;2023-06-04T09:21:11;22.90;52.50
47310;DHT22;33046;52.270;6.832;2023-06-04T09:23:19;22.90;52.80
47310;DHT22;33046;52.270;6.832;2023-06-04T09:25:27;22.90;53.40
47310;DHT22;33046;52.270;6.832;2023-06-04T09:27:38;22.90;54.80
47310;DHT22;33046;52.270;6.832;2023-06-04T09:29:51;23.00;54.60
47310;DHT22;33046;52.270;6.832;2023-06-04T09:31:59;22.90;52.40
47310;DHT22;33046;52.270;6.832;2023-06-04T09:34:06;23.00;51.20
47310;DHT22;33046;52.270;6.832;2023-06-04T09:36:13;23.10;52.70
47310;DHT22;33046;52.270;6.832;2023-06-04T09:38:21;23.10;52.80
47310;DHT22;33046;52.270;6.832;2023-06-04T09:40:35;23.10;51.60
47310;DHT22;33046;52.270;6.832;2023-06-04T09:42:43;23.20;52.90
47310;DHT22;33046;52.270;6.832;2023-06-04T09:44:50;23.30;53.20
47310;DHT22;33046;52.270;6.832;2023-06-04T09:46:58;23.20;51.70
47310;DHT22;33046;52.270;6.832;2023-06-04T09:49:05;23.20;51.70
47310;DHT22;33046;52.270;6.832;2023-06-04T09:51:14;23.20;49.60
47310;DHT22;33046;52.270;6.832;2023-06-04T09:53:22;23.20;49.30
47310;DHT22;33046;52.270;6.832;2023-06-04T09:55:29;23.40;51.30
47310;DHT22;33046;52.270;6.832;2023-06-04T09:57:36;23.40;50.50
47310;DHT22;33046;52.270;6.832;2023-06-04T09:59:44;23.40;50.30
47310;DHT22;33046;52.270;6.832;2023-06-04T10:01:51;23.40;50.70
47310;DHT22;33046;52.270;6.832;2023-06-04T10:04:03;23.40;49.70
47310;DHT22;33046;52.270;6.832;2023-06-04T10:06:10;23.30;50.80
47310;DHT22;33046;52.270;6.832;2023-06-04T10:08:22;23.30;50.60
47310;DHT22;33046;52.270;6.832;2023-06-04T10:10:30;23.40;49.60
47310;DHT22;33046;52.270;6.832;2023-06-04T10:12:37;23.50;50.40
47310;DHT22;33046;52.270;6.832;2023-06-04T10:14:49;23.50;51.60
47310;DHT22;33046;52.270;6.832;2023-06-04T10:16:59;23.60;50.50
47310;DHT22;33046;52.270;6.832;2023-06-04T10:19:07;23.70;50.90
47310;DHT22;33046;52.270;6.832;2023-06-04T10:21:14;23.60;49.30
47310;DHT22;33046;52.270;6.832;2023-06-04T10:23:24;23.70;50.50
47310;DHT22;33046;52.270;6.832;2023-06-04T10:25:31;23.70;49.40
47310;DHT22;33046;52.270;6.832;2023-06-04T10:27:39;23.90;50.20
47310;DHT22;33046;52.270;6.832;2023-06-04T10:29:46;23.90;51.00
47310;DHT22;33046;52.270;6.832;2023-06-04T10:31:54;23.70;50.00
47310;DHT22;33046;52.270;6.832;2023-06-04T10:34:01;23.80;49.90
47310;DHT22;33046;52.270;6.832;2023-06-04T10:36:18;23.80;50.30
47310;DHT22;33046;52.270;6.832;2023-06-04T10:38:27;23.80;50.30
47310;DHT22;33046;52.270;6.832;2023-06-04T10:40:35;23.90;49.60
47310;DHT22;33046;52.270;6.832;2023-06-04T10:42:42;24.00;49.90
47310;DHT22;33046;52.270;6.832;2023-06-04T10:44:50;24.10;49.30
47310;DHT22;33046;52.270;6.832;2023-06-04T10:46:58;24.10;49.50
47310;DHT22;33046;52.270;6.832;2023-06-04T10:49:05;24.00;49.40
47310;DHT22;33046;52.270;6.832;2023-06-04T10:51:12;24.10;49.40
47310;DHT22;33046;52.270;6.832;2023-06-04T10:53:19;24.20;50.30
47310;DHT22;33046;52.270;6.832;2023-06-04T10:55:27;24.10;49.10
47310;DHT22;33046;52.270;6.832;2023-06-04T10:57:34;24.20;49.50
47310;DHT22;33046;52.270;6.832;2023-06-04T10:59:41;24.20;48.70
47310;DHT22;33046;52.270;6.832;2023-06-04T11:01:48;24.10;49.00
47310;DHT22;33046;52.270;6.832;2023-06-04T11:03:55;24.30;48.90
47310;DHT22;33046;52.270;6.832;2023-06-04T11:06:02;24.30;49.10
47310;DHT22;33046;52.270;6.832;2023-06-04T11:08:09;24.30;49.00
47310;DHT22;33046;52.270;6.832;2023-06-04T11:10:17;24.20;47.90
47310;DHT22;33046;52.270;6.832;2023-06-04T11:12:25;24.30;48.80
47310;DHT22;33046;52.270;6.832;2023-06-04T11:14:33;24.40;47.70
47310;DHT22;33046;52.270;6.832;2023-06-04T11:16:39;24.60;49.70
47310;DHT22;33046;52.270;6.832;2023-06-04T11:18:54;24.50;46.60
47310;DHT22;33046;52.270;6.832;2023-06-04T11:21:01;24.60;48.20
47310;DHT22;33046;52.270;6.832;2023-06-04T11:23:08;24.60;47.60
47310;DHT22;33046;52.270;6.832;2023-06-04T11:25:15;24.70;47.90
47310;DHT22;33046;52.270;6.832;2023-06-04T11:27:22;24.70;47.90
47310;DHT22;33046;52.270;6.832;2023-06-04T11:29:36;24.80;48.10
47310;DHT22;33046;52.270;6.832;2023-06-04T11:31:44;24.80;47.40
47310;DHT22;33046;52.270;6.832;2023-06-04T11:33:51;24.80;47.80
47310;DHT22;33046;52.270;6.832;2023-06-04T11:35:58;24.80;48.80
47310;DHT22;33046;52.270;6.832;2023-06-04T11:38:05;24.80;47.30
47310;DHT22;33046;52.270;6.832;2023-06-04T11:40:16;24.90;47.60
47310;DHT22;33046;52.270;6.832;2023-06-04T11:42:23;25.00;47.30
47310;DHT22;33046;52.270;6.832;2023-06-04T11:44:30;24.90;45.10
47310;DHT22;33046;52.270;6.832;2023-06-04T11:46:42;24.90;47.80
47310;DHT22;33046;52.270;6.832;2023-06-04T11:48:50;24.80;46.70
47310;DHT22;33046;52.270;6.832;2023-06-04T11:50:58;24.90;46.90
47310;DHT22;33046;52.270;6.832;2023-06-04T11:53:05;24.80;47.00
47310;DHT22;33046;52.270;6.832;2023-06-04T11:55:13;24.90;46.40
47310;DHT22;33046;52.270;6.832;2023-06-04T11:57:20;24.90;46.00
47310;DHT22;33046;52.270;6.832;2023-06-04T11:59:27;25.00;46.60
47310;DHT22;33046;52.270;6.832;2023-06-04T12:01:34;24.90;46.50
47310;DHT22;33046;52.270;6.832;2023-06-04T12:03:43;25.00;46.70
47310;DHT22;33046;52.270;6.832;2023-06-04T12:05:49;25.00;47.20
47310;DHT22;33046;52.270;6.832;2023-06-04T12:08:04;25.10;47.40
47310;DHT22;33046;52.270;6.832;2023-06-04T12:10:11;25.00;47.50
47310;DHT22;33046;52.270;6.832;2023-06-04T12:12:22;25.10;46.60
47310;DHT22;33046;52.270;6.832;2023-06-04T12:14:29;25.20;47.60
47310;DHT22;33046;52.270;6.832;2023-06-04T12:16:36;25.20;46.30
47310;DHT22;33046;52.270;6.832;2023-06-04T12:18:44;25.30;47.30
47310;DHT22;33046;52.270;6.832;2023-06-04T12:20:51;25.20;44.80
47310;DHT22;33046;52.270;6.832;2023-06-04T12:22:58;25.30;46.10
47310;DHT22;33046;52.270;6.832;2023-06-04T12:25:05;25.40;44.20
47310;DHT22;33046;52.270;6.832;2023-06-04T12:27:12;25.30;45.00
47310;DHT22;33046;52.270;6.832;2023-06-04T12:29:19;25.20;45.40
47310;DHT22;33046;52.270;6.832;2023-06-04T12:31:26;25.30;45.10
47310;DHT22;33046;52.270;6.832;2023-06-04T12:33:33;25.20;45.80
47310;DHT22;33046;52.270;6.832;2023-06-04T12:35:41;25.40;47.60
47310;DHT22;33046;52.270;6.832;2023-06-04T12:37:48;25.40;47.10
47310;DHT22;33046;52.270;6.832;2023-06-04T12:39:55;25.30;46.10
47310;DHT22;33046;52.270;6.832;2023-06-04T12:42:01;25.40;45.50
47310;DHT22;33046;52.270;6.832;2023-06-04T12:44:08;25.40;46.10
47310;DHT22;33046;52.270;6.832;2023-06-04T12:46:15;25.30;46.20
47310;DHT22;33046;52.270;6.832;2023-06-04T12:48:22;25.40;47.30
47310;DHT22;33046;52.270;6.832;2023-06-04T12:50:29;25.50;47.70
47310;DHT22;33046;52.270;6.832;2023-06-04T12:52:37;25.50;45.50
47310;DHT22;33046;52.270;6.832;2023-06-04T12:54:44;25.50;45.80
47310;DHT22;33046;52.270;6.832;2023-06-04T12:56:51;25.60;46.50
47310;DHT22;33046;52.270;6.832;2023-06-04T12:58:58;25.50;44.70
47310;DHT22;33046;52.270;6.832;2023-06-04T13:01:05;25.60;45.30
47310;DHT22;33046;52.270;6.832;2023-06-04T13:03:12;25.50;45.70
47310;DHT22;33046;52.270;6.832;2023-06-04T13:05:19;25.50;43.90
47310;DHT22;33046;52.270;6.832;2023-06-04T13:07:25;25.50;44.30
47310;DHT22;33046;52.270;6.832;2023-06-04T13:09:35;25.70;45.50
47310;DHT22;33046;52.270;6.832;2023-06-04T13:11:42;25.60;44.80
47310;DHT22;33046;52.270;6.832;2023-06-04T13:13:49;25.60;45.00
47310;DHT22;33046;52.270;6.832;2023-06-04T13:15:56;25.50;45.70
47310;DHT22;33046;52.270;6.832;2023-06-04T13:18:03;25.60;45.60
47310;DHT22;33046;52.270;6.832;2023-06-04T13:20:11;25.70;46.20
47310;DHT22;33046;52.270;6.832;2023-06-04T13:22:18;25.80;46.20
47310;DHT22;33046;52.270;6.832;2023-06-04T13:24:24;25.90;46.70
47310;DHT22;33046;52.270;6.832;2023-06-04T13:26:32;26.00;46.20